Time;durP1;ratioP1;P1;durP2;ratioP2;P2;SDS_P1;SDS_P2;PMS_P1;PMS_P2;Temp;Humidity;BMP_temperature;BMP_pressure;BME280_temperature;BME280_humidity;BME280_pressure;Samples;Min_cycle;Max_cycle;Signal;HPM_P1;HPM_P2
2021/09/03 00:00:41;;;;;;;9.65;7.88;;;;;;;15.76;84.37;101040.50;6195582;23;20017;-84
2021/09/03 00:03:07;;;;;;;11.63;7.32;;;;;;;15.73;84.60;101044.22;6193984;23;20659;-84
2021/09/03 00:05:37;;;;;;;11.13;7.57;;;;;;;15.70;84.88;101044.41;6220612;23;20028;-84
2021/09/03 00:08:04;;;;;;;10.95;7.78;;;;;;;15.63;84.92;101042.16;6219739;23;20051;-83
2021/09/03 00:10:31;;;;;;;11.60;7.68;;;;;;;15.56;85.60;101047.00;6221325;23;20017;-84
2021/09/03 00:12:57;;;;;;;11.02;7.70;;;;;;;15.52;86.01;101042.75;6221733;23;20064;-84
2021/09/03 00:15:25;;;;;;;8.77;7.55;;;;;;;15.49;85.89;101047.41;6231378;23;20021;-83
2021/09/03 00:17:51;;;;;;;13.07;7.65;;;;;;;15.48;86.30;101056.34;6232745;23;20032;-84
2021/09/03 00:20:18;;;;;;;12.13;8.20;;;;;;;15.41;86.22;101043.38;6232427;23;20012;-84
2021/09/03 00:22:45;;;;;;;12.27;8.80;;;;;;;15.38;86.19;101048.88;6206394;23;20056;-84
2021/09/03 00:25:12;;;;;;;9.65;7.82;;;;;;;15.35;86.39;101051.72;6231726;23;20096;-83
2021/09/03 00:27:39;;;;;;;12.98;8.30;;;;;;;15.31;86.21;101044.81;6230644;23;20080;-84
2021/09/03 00:30:06;;;;;;;12.82;8.40;;;;;;;15.27;86.46;101045.06;6221637;23;20104;-84
2021/09/03 00:32:33;;;;;;;13.00;8.52;;;;;;;15.23;87.14;101052.41;6217345;23;20050;-85
2021/09/03 00:35:01;;;;;;;13.57;8.13;;;;;;;15.18;87.44;101042.94;6219210;23;20739;-84
2021/09/03 00:37:28;;;;;;;10.18;8.23;;;;;;;15.17;87.77;101044.72;6220431;23;20025;-84
2021/09/03 00:39:55;;;;;;;12.60;8.18;;;;;;;15.14;87.94;101033.38;6194505;23;20024;-84
2021/09/03 00:42:22;;;;;;;14.02;8.65;;;;;;;15.11;88.06;101028.22;6220170;23;20024;-84
2021/09/03 00:44:49;;;;;;;12.70;8.13;;;;;;;15.08;88.22;101029.25;6193958;23;20106;-84
2021/09/03 00:47:17;;;;;;;11.63;8.75;;;;;;;15.02;88.58;101033.09;6221489;23;20021;-84
2021/09/03 00:49:44;;;;;;;11.82;8.38;;;;;;;14.96;88.59;101022.75;6221352;23;20017;-84
2021/09/03 00:52:13;;;;;;;13.50;9.10;;;;;;;14.94;88.63;101029.16;6195216;23;20027;-85
2021/09/03 00:54:40;;;;;;;12.07;8.68;;;;;;;14.90;89.17;101031.13;6223141;23;20024;-84
2021/09/03 00:57:08;;;;;;;14.02;9.80;;;;;;;14.84;89.62;101031.44;6227550;23;20031;-83
2021/09/03 00:59:35;;;;;;;12.50;8.88;;;;;;;14.80;89.81;101029.03;6230107;23;20104;-84
2021/09/03 01:02:02;;;;;;;11.73;9.02;;;;;;;14.79;89.64;101030.84;6229327;23;20112;-83
2021/09/03 01:04:31;;;;;;;11.43;8.77;;;;;;;14.77;89.79;101022.06;6210238;23;20082;-82
2021/09/03 01:06:58;;;;;;;12.93;9.30;;;;;;;14.76;90.09;101022.16;6236796;23;20013;-82
2021/09/03 01:09:28;;;;;;;15.23;9.55;;;;;;;14.78;90.14;101025.59;6238014;23;20035;-85
2021/09/03 01:11:54;;;;;;;11.68;8.68;;;;;;;14.78;90.01;101021.13;6237685;23;20025;-83
2021/09/03 01:14:23;;;;;;;12.93;9.07;;;;;;;14.76;89.96;101019.50;6233954;23;20020;-84
2021/09/03 01:16:50;;;;;;;14.73;10.10;;;;;;;14.77;89.55;101015.88;6229138;23;20021;-83
2021/09/03 01:19:17;;;;;;;14.13;9.30;;;;;;;14.71;89.41;101014.41;6232657;23;20032;-85
2021/09/03 01:21:47;;;;;;;12.93;9.40;;;;;;;14.71;89.40;101019.72;6233610;23;20108;-83
2021/09/03 01:24:14;;;;;;;12.75;9.82;;;;;;;14.70;89.55;101013.53;6206883;23;20048;-84
2021/09/03 01:26:40;;;;;;;14.63;9.55;;;;;;;14.70;89.30;101010.00;6232657;23;20080;-83
2021/09/03 01:29:07;;;;;;;14.25;9.27;;;;;;;14.64;89.35;101011.19;6232379;23;20103;-83
2021/09/03 01:31:35;;;;;;;12.75;9.38;;;;;;;14.62;89.48;101012.25;6230361;23;20111;-84
2021/09/03 01:34:04;;;;;;;13.05;9.70;;;;;;;14.57;89.97;101014.28;6230106;23;20029;-84
2021/09/03 01:36:33;;;;;;;13.82;10.00;;;;;;;14.53;90.38;101005.59;6227593;23;20024;-84
2021/09/03 01:39:01;;;;;;;13.30;9.20;;;;;;;14.49;90.39;101004.00;6229706;23;20398;-83
2021/09/03 01:41:29;;;;;;;11.40;9.60;;;;;;;14.47;90.80;101011.25;6226943;23;20085;-84
2021/09/03 01:43:56;;;;;;;15.30;9.43;;;;;;;14.45;91.23;101010.47;6226430;23;20029;-84
2021/09/03 01:46:23;;;;;;;14.52;9.13;;;;;;;14.47;90.73;101002.41;6226176;23;20035;-83
2021/09/03 01:48:50;;;;;;;13.30;9.43;;;;;;;14.44;91.15;101002.56;6237053;23;20068;-83
2021/09/03 01:51:17;;;;;;;14.52;9.43;;;;;;;14.42;91.10;101007.97;6224887;23;20028;-84
2021/09/03 01:53:44;;;;;;;12.32;9.55;;;;;;;14.36;91.12;101006.44;6234900;23;20024;-84
2021/09/03 01:56:11;;;;;;;11.90;9.80;;;;;;;14.28;91.30;101006.00;6240453;23;20032;-84
2021/09/03 01:58:38;;;;;;;13.32;10.25;;;;;;;14.23;91.87;101001.84;6235981;23;20048;-84
2021/09/03 02:01:06;;;;;;;11.00;9.23;;;;;;;14.26;91.43;101009.69;6222479;23;20020;-84
2021/09/03 02:03:33;;;;;;;14.68;9.90;;;;;;;14.22;91.29;101002.78;6220965;23;20020;-84
2021/09/03 02:06:00;;;;;;;14.93;10.73;;;;;;;14.18;91.88;101014.53;6194184;23;20016;-84
2021/09/03 02:08:27;;;;;;;13.38;10.02;;;;;;;14.15;92.05;101015.59;6221790;23;20024;-83
2021/09/03 02:10:53;;;;;;;15.13;10.50;;;;;;;14.12;92.28;101013.06;6219823;23;20025;-84
2021/09/03 02:13:23;;;;;;;15.77;10.23;;;;;;;14.08;92.13;101003.50;6220093;23;20402;-83
2021/09/03 02:15:49;;;;;;;13.55;9.48;;;;;;;14.08;92.48;101011.50;6219312;23;20614;-84
2021/09/03 02:18:16;;;;;;;13.45;10.30;;;;;;;14.05;92.77;101009.00;6194259;23;20083;-81
2021/09/03 02:20:43;;;;;;;12.93;10.30;;;;;;;14.04;92.75;101012.59;6220582;23;20024;-83
2021/09/03 02:23:10;;;;;;;13.18;9.88;;;;;;;14.03;93.03;101002.88;6221315;23;20099;-82
2021/09/03 02:25:38;;;;;;;14.90;10.35;;;;;;;14.03;92.95;101003.75;6220400;23;20020;-83
2021/09/03 02:28:05;;;;;;;13.75;9.93;;;;;;;14.02;92.81;101010.00;6220647;23;20017;-82
2021/09/03 02:30:32;;;;;;;14.77;10.80;;;;;;;14.04;93.33;101009.94;6221496;23;20017;-83
2021/09/03 02:32:59;;;;;;;14.35;9.70;;;;;;;14.04;93.28;101007.25;6221101;23;20474;-83
2021/09/03 02:35:28;;;;;;;14.38;10.43;;;;;;;14.01;93.02;101002.09;6216019;23;20052;-83
2021/09/03 02:37:56;;;;;;;14.10;10.00;;;;;;;14.01;92.79;101004.75;6223183;23;20024;-83
2021/09/03 02:40:27;;;;;;;15.32;9.95;;;;;;;14.01;92.97;101002.94;6224837;23;20028;-83
2021/09/03 02:42:54;;;;;;;14.20;9.93;;;;;;;14.00;92.75;101008.38;6229773;23;20454;-83
2021/09/03 02:45:24;;;;;;;15.55;10.43;;;;;;;13.99;92.69;101006.66;6241244;22;20064;-82
2021/09/03 02:47:52;;;;;;;15.90;10.25;;;;;;;14.00;93.03;101003.06;6243976;22;20009;-81
2021/09/03 02:50:19;;;;;;;16.25;10.32;;;;;;;13.99;93.03;100998.69;6242577;22;20028;-82
2021/09/03 02:52:46;;;;;;;15.00;10.60;;;;;;;13.99;93.28;101001.34;6242453;22;20035;-82
2021/09/03 02:55:12;;;;;;;16.27;10.95;;;;;;;14.03;93.19;101010.88;6243065;22;20072;-83
2021/09/03 02:57:39;;;;;;;14.80;10.38;;;;;;;14.03;92.82;101000.22;6242582;22;20032;-82
2021/09/03 03:00:08;;;;;;;14.25;10.00;;;;;;;14.06;92.88;101000.06;6240680;22;20012;-83
2021/09/03 03:02:35;;;;;;;17.27;10.57;;;;;;;14.07;92.39;101000.94;6239518;23;20084;-84
2021/09/03 03:05:02;;;;;;;16.27;10.35;;;;;;;14.07;92.25;101004.44;6234062;23;20084;-84
2021/09/03 03:07:30;;;;;;;15.55;10.45;;;;;;;14.03;91.88;100986.91;6221811;23;20151;-83
2021/09/03 03:09:57;;;;;;;14.40;10.68;;;;;;;13.99;92.07;100990.69;6218440;23;20048;-84
2021/09/03 03:12:24;;;;;;;16.70;11.48;;;;;;;13.96;92.07;100990.84;6220040;23;20039;-84
2021/09/03 03:14:50;;;;;;;14.93;10.55;;;;;;;13.93;92.09;100986.53;6227405;23;20044;-83
2021/09/03 03:17:17;;;;;;;15.10;11.05;;;;;;;13.94;92.59;100995.38;6232971;23;20027;-82
2021/09/03 03:19:44;;;;;;;15.13;10.18;;;;;;;13.94;92.64;100984.72;6236834;23;20028;-82
2021/09/03 03:22:12;;;;;;;14.82;9.68;;;;;;;13.93;92.07;100981.19;6234601;23;20020;-84
2021/09/03 03:24:39;;;;;;;15.38;10.55;;;;;;;13.93;93.02;100983.88;6230535;23;20112;-83
2021/09/03 03:27:06;;;;;;;14.35;10.82;;;;;;;13.91;92.92;100979.56;6233540;23;20438;-83
2021/09/03 03:29:32;;;;;;;15.30;10.73;;;;;;;13.91;92.76;100979.56;6237903;23;20016;-83
2021/09/03 03:31:59;;;;;;;15.30;10.68;;;;;;;13.89;92.81;100978.75;6235564;23;20103;-83
2021/09/03 03:34:26;;;;;;;15.88;10.80;;;;;;;13.89;93.26;100976.97;6235725;23;20024;-83
2021/09/03 03:36:53;;;;;;;17.05;10.75;;;;;;;13.87;92.84;100970.84;6235147;23;20004;-83
2021/09/03 03:39:21;;;;;;;14.85;11.05;;;;;;;13.84;92.93;100978.16;6234570;23;20095;-83
2021/09/03 03:41:48;;;;;;;18.45;10.63;;;;;;;13.81;93.01;100983.63;6231819;23;20105;-83
2021/09/03 03:44:15;;;;;;;14.50;10.82;;;;;;;13.78;93.17;100978.47;6224330;23;20051;-83
2021/09/03 03:46:42;;;;;;;13.20;10.20;;;;;;;13.76;93.51;100977.69;6218557;23;20427;-84
2021/09/03 03:49:09;;;;;;;15.10;10.68;;;;;;;13.73;93.65;100977.81;6217589;23;20017;-83
2021/09/03 03:51:36;;;;;;;18.27;11.18;;;;;;;13.73;93.38;100975.16;6218218;23;20021;-83
2021/09/03 03:54:02;;;;;;;16.27;11.25;;;;;;;13.73;93.59;100975.16;6191972;23;20016;-83
2021/09/03 03:56:29;;;;;;;15.43;11.38;;;;;;;13.74;93.71;100971.56;6218446;23;20024;-85
2021/09/03 03:58:57;;;;;;;13.77;11.00;;;;;;;13.70;93.68;100976.19;6218735;23;20180;-83
2021/09/03 04:01:24;;;;;;;19.48;11.30;;;;;;;13.70;93.90;100970.84;6216816;23;20021;-83
2021/09/03 04:03:51;;;;;;;17.17;10.48;;;;;;;13.68;93.73;100965.63;6219747;23;20035;-83
2021/09/03 04:06:17;;;;;;;14.43;11.07;;;;;;;13.65;93.35;100968.44;6218864;23;20616;-83
2021/09/03 04:08:44;;;;;;;15.77;11.25;;;;;;;13.63;93.93;100970.31;6217386;23;20076;-82
2021/09/03 04:11:12;;;;;;;17.60;11.43;;;;;;;13.63;94.15;100967.66;6216654;23;20020;-83
2021/09/03 04:13:39;;;;;;;18.70;11.52;;;;;;;13.62;94.02;100959.75;6190661;23;20024;-84
2021/09/03 04:16:06;;;;;;;15.52;10.95;;;;;;;13.63;93.85;100958.81;6216814;23;20111;-82
2021/09/03 04:18:32;;;;;;;16.95;12.13;;;;;;;13.66;94.61;100964.84;6216950;23;20013;-83
2021/09/03 04:20:59;;;;;;;18.40;10.98;;;;;;;13.70;94.43;100966.38;6217255;23;20043;-82
2021/09/03 04:23:33;;;;;;;20.35;12.10;;;;;;;13.76;94.46;100964.38;6219457;23;20036;-82
2021/09/03 04:25:59;;;;;;;17.17;11.73;;;;;;;13.78;93.38;100967.81;6230403;23;20028;-83
2021/09/03 04:28:26;;;;;;;16.95;11.40;;;;;;;13.73;93.00;100967.19;6237665;23;20024;-83
2021/09/03 04:30:54;;;;;;;17.83;12.10;;;;;;;13.63;93.01;100962.34;6232467;23;20429;-83
2021/09/03 04:33:21;;;;;;;21.02;11.68;;;;;;;13.62;93.20;100967.72;6219545;23;20051;-84
2021/09/03 04:35:48;;;;;;;18.20;11.70;;;;;;;13.58;93.21;100961.69;6219527;23;20027;-83
2021/09/03 04:38:17;;;;;;;17.60;11.82;;;;;;;13.54;93.49;100962.78;6233171;23;20020;-84
2021/09/03 04:40:44;;;;;;;16.80;12.63;;;;;;;13.50;93.53;100963.91;6233637;23;20109;-83
2021/09/03 04:43:10;;;;;;;15.05;11.45;;;;;;;13.48;93.91;100976.41;6222558;23;20104;-84
2021/09/03 04:45:37;;;;;;;16.38;11.73;;;;;;;13.44;94.07;100977.50;6221490;23;20096;-84
2021/09/03 04:48:04;;;;;;;16.02;12.05;;;;;;;13.42;93.98;100982.03;6220426;23;20025;-84
2021/09/03 04:50:30;;;;;;;17.70;11.88;;;;;;;13.41;94.20;100979.44;6222668;23;20044;-84
2021/09/03 04:52:57;;;;;;;19.13;11.73;;;;;;;13.40;94.39;100985.69;6221163;23;20056;-83
2021/09/03 04:55:24;;;;;;;17.88;11.88;;;;;;;13.38;94.58;100968.97;6224039;23;20017;-84
2021/09/03 04:57:50;;;;;;;16.65;11.90;;;;;;;13.40;94.59;100975.03;6239139;23;20044;-83
2021/09/03 05:00:19;;;;;;;16.33;11.68;;;;;;;13.42;94.70;100981.16;6236564;23;20024;-84
2021/09/03 05:02:48;;;;;;;17.70;11.98;;;;;;;13.42;94.95;100981.16;6234914;23;20561;-83
2021/09/03 05:05:17;;;;;;;18.42;12.23;;;;;;;13.43;94.75;100983.75;6231664;23;20044;-84
2021/09/03 05:07:46;;;;;;;15.90;11.95;;;;;;;13.46;94.57;100980.94;6222728;23;20025;-83
2021/09/03 05:10:13;;;;;;;15.70;12.07;;;;;;;13.46;94.39;100982.75;6219936;23;20091;-83
2021/09/03 05:12:40;;;;;;;15.52;11.30;;;;;;;13.50;94.77;100979.00;6220731;23;20025;-83
2021/09/03 05:15:16;;;;;;;18.60;12.07;;;;;;;13.52;94.69;100972.66;6215098;23;20028;-82
2021/09/03 05:17:48;;;;;;;15.00;11.65;;;;;;;13.54;94.47;100976.09;6219243;23;20027;-85
2021/09/03 05:20:15;;;;;;;14.88;11.43;;;;;;;13.55;94.63;100977.81;6219917;23;20035;-83
2021/09/03 05:22:42;;;;;;;16.67;11.52;;;;;;;13.58;94.04;100977.66;6218850;23;20051;-83
2021/09/03 05:25:11;;;;;;;20.27;11.95;;;;;;;13.60;93.90;100983.78;6218372;23;20107;-83
2021/09/03 05:27:38;;;;;;;16.30;11.93;;;;;;;13.63;93.79;100988.09;6219337;23;20027;-83
2021/09/03 05:30:05;;;;;;;20.15;12.20;;;;;;;13.65;93.75;100992.41;6220242;23;20029;-84
2021/09/03 05:32:32;;;;;;;17.17;11.48;;;;;;;13.68;94.20;100989.59;6220960;23;20012;-84
2021/09/03 05:34:59;;;;;;;15.52;11.55;;;;;;;13.71;93.89;100988.53;6222028;23;20111;-84
2021/09/03 05:37:26;;;;;;;20.85;12.05;;;;;;;13.76;93.74;100988.31;6221345;23;20036;-84
2021/09/03 05:39:53;;;;;;;19.40;12.95;;;;;;;13.78;93.19;100989.09;6222763;23;20083;-84
2021/09/03 05:42:19;;;;;;;17.65;12.50;;;;;;;13.82;93.07;100985.38;6223934;23;20092;-84
2021/09/03 05:44:46;;;;;;;17.50;11.50;;;;;;;13.86;93.02;100986.91;6238981;23;20039;-83
2021/09/03 05:47:13;;;;;;;17.02;11.48;;;;;;;13.88;92.55;100983.22;6239865;23;20028;-84
2021/09/03 05:49:39;;;;;;;19.10;12.32;;;;;;;13.94;92.88;100990.06;6223708;23;20059;-84
2021/09/03 05:52:06;;;;;;;16.50;11.27;;;;;;;13.98;92.78;100992.50;6239798;23;20023;-83
2021/09/03 05:54:33;;;;;;;17.02;11.55;;;;;;;14.05;92.44;100987.69;6236926;23;20032;-83
2021/09/03 05:57:01;;;;;;;16.40;12.60;;;;;;;14.09;92.28;100988.41;6237532;23;20024;-83
2021/09/03 05:59:28;;;;;;;20.75;12.98;;;;;;;14.12;92.09;100988.25;6231615;23;20080;-84
2021/09/03 06:01:55;;;;;;;18.23;11.90;;;;;;;14.17;91.97;100989.69;6194900;23;20178;-84
2021/09/03 06:04:22;;;;;;;17.17;12.18;;;;;;;14.21;91.31;100975.28;6194158;23;20020;-84
2021/09/03 06:06:49;;;;;;;18.05;11.98;;;;;;;14.27;90.88;100982.09;6219858;23;20029;-83
2021/09/03 06:09:16;;;;;;;18.90;12.43;;;;;;;14.29;90.65;100978.44;6219911;23;20020;-84
2021/09/03 06:11:43;;;;;;;14.18;11.50;;;;;;;14.34;90.57;100980.81;6218411;23;20024;-84
2021/09/03 06:14:10;;;;;;;16.20;11.13;;;;;;;14.42;90.78;100975.13;6219804;23;20103;-83
2021/09/03 06:16:37;;;;;;;18.13;12.60;;;;;;;14.43;90.16;100967.06;6219523;23;20032;-83
2021/09/03 06:19:04;;;;;;;17.48;12.25;;;;;;;14.51;89.30;100979.97;6219515;23;20021;-84
2021/09/03 06:21:33;;;;;;;14.82;11.05;;;;;;;14.54;89.43;100977.13;6221053;23;20016;-84
2021/09/03 06:23:59;;;;;;;18.35;12.27;;;;;;;14.62;89.10;100978.44;6219854;23;20026;-83
2021/09/03 06:26:28;;;;;;;18.35;12.50;;;;;;;14.71;88.76;100979.75;6195158;23;20095;-83
2021/09/03 06:28:55;;;;;;;15.57;11.38;;;;;;;14.79;88.15;100974.88;6218665;23;20021;-83
2021/09/03 06:31:22;;;;;;;20.63;12.57;;;;;;;14.92;88.53;100977.72;6194804;23;20063;-84
2021/09/03 06:33:48;;;;;;;15.65;11.10;;;;;;;15.06;88.37;100970.66;6221723;23;20025;-83
2021/09/03 06:36:15;;;;;;;17.08;12.27;;;;;;;15.21;86.24;100970.72;6223592;23;20035;-84
2021/09/03 06:38:42;;;;;;;18.50;11.70;;;;;;;15.32;85.54;100962.97;6231727;23;20019;-84
2021/09/03 06:41:08;;;;;;;17.45;11.75;;;;;;;15.47;84.60;100967.41;6236319;23;20072;-82
2021/09/03 06:43:35;;;;;;;18.75;11.90;;;;;;;15.60;83.75;100963.09;6228194;23;20027;-85
2021/09/03 06:46:26;;;;;;;18.70;11.55;;;;;;;15.96;81.54;100960.06;6224110;23;20019;-83
2021/09/03 06:48:54;;;;;;;16.88;11.05;;;;;;;16.28;80.73;100971.47;6220590;23;20095;-84
2021/09/03 06:51:20;;;;;;;14.07;11.05;;;;;;;16.56;78.47;100962.56;6221117;23;20079;-84
2021/09/03 06:53:47;;;;;;;16.23;10.60;;;;;;;16.92;77.20;100969.25;6219840;23;20020;-83
2021/09/03 06:56:13;;;;;;;16.38;11.02;;;;;;;17.12;75.50;100975.06;6220555;23;20095;-83
2021/09/03 06:58:40;;;;;;;16.48;11.55;;;;;;;17.27;75.06;100972.34;6219258;23;20032;-84
2021/09/03 07:01:09;;;;;;;14.52;10.40;;;;;;;17.38;74.29;100964.44;6219289;23;20087;-84
2021/09/03 07:03:37;;;;;;;15.25;10.80;;;;;;;17.51;73.32;100970.69;6218759;23;20017;-85
2021/09/03 07:06:04;;;;;;;14.60;10.13;;;;;;;17.66;72.68;100967.03;6217346;23;20076;-84
2021/09/03 07:08:30;;;;;;;16.15;11.02;;;;;;;17.78;72.36;100968.03;6221779;23;20028;-82
2021/09/03 07:10:57;;;;;;;13.55;10.13;;;;;;;17.96;71.70;100963.22;6219389;23;20052;-85
2021/09/03 07:13:25;;;;;;;12.95;10.10;;;;;;;18.06;70.90;100967.00;6220750;23;20016;-84
2021/09/03 07:15:52;;;;;;;12.60;9.98;;;;;;;18.21;71.45;100965.94;6222212;23;20036;-85
2021/09/03 07:18:19;;;;;;;15.98;10.20;;;;;;;18.33;69.23;100962.41;6221562;23;20023;-85
2021/09/03 07:20:46;;;;;;;14.95;10.05;;;;;;;18.40;69.51;100963.69;6221171;23;20091;-85
2021/09/03 07:23:12;;;;;;;16.25;11.07;;;;;;;18.44;69.39;100975.03;6218403;23;20016;-85
2021/09/03 07:25:39;;;;;;;12.93;9.70;;;;;;;18.50;68.52;100970.13;6219043;23;20078;-85
2021/09/03 07:28:06;;;;;;;14.85;10.23;;;;;;;18.41;68.89;100978.81;6218816;23;20100;-85
2021/09/03 07:30:32;;;;;;;13.82;10.35;;;;;;;18.33;69.14;100989.22;6217807;23;20073;-85
2021/09/03 07:32:59;;;;;;;13.90;9.70;;;;;;;18.32;69.79;100979.44;6191295;23;20020;-84
2021/09/03 07:35:26;;;;;;;13.10;9.10;;;;;;;18.55;70.37;100981.38;6210692;23;20028;-83
2021/09/03 07:37:53;;;;;;;16.90;10.88;;;;;;;18.76;69.81;100983.50;6218457;23;20324;-84
2021/09/03 07:40:19;;;;;;;14.18;9.35;;;;;;;18.90;69.37;100980.69;6219166;23;20614;-84
2021/09/03 07:42:46;;;;;;;12.65;9.52;;;;;;;19.01;67.71;100974.56;6217783;23;20021;-83
2021/09/03 07:45:13;;;;;;;12.88;9.25;;;;;;;19.07;67.72;100966.91;6218856;23;20031;-84
2021/09/03 07:47:40;;;;;;;13.73;9.43;;;;;;;19.10;67.01;100974.75;6217045;23;20022;-84
2021/09/03 07:50:17;;;;;;;11.65;9.95;;;;;;;19.13;66.80;100974.53;6220370;23;20074;-84
2021/09/03 07:52:46;;;;;;;13.38;9.32;;;;;;;19.16;66.95;100971.63;6217689;23;20021;-84
2021/09/03 07:55:34;;;;;;;13.77;9.90;;;;;;;19.16;67.16;100968.06;6215632;23;20414;-85
2021/09/03 07:58:04;;;;;;;12.13;8.88;;;;;;;19.24;67.18;100966.53;6216961;23;20055;-84
2021/09/03 08:00:34;;;;;;;13.40;9.25;;;;;;;19.23;66.82;100967.50;6218973;23;20017;-85
2021/09/03 08:03:03;;;;;;;14.10;9.50;;;;;;;19.27;66.78;100973.50;6214386;23;20023;-83
2021/09/03 08:05:30;;;;;;;12.30;9.05;;;;;;;19.38;67.43;100959.25;6219372;23;20032;-82
2021/09/03 08:07:57;;;;;;;12.32;8.88;;;;;;;19.51;67.09;100962.81;6221941;23;20021;-83
2021/09/03 08:10:24;;;;;;;14.65;8.45;;;;;;;19.60;66.89;100967.47;6218782;23;20017;-81
2021/09/03 08:12:50;;;;;;;15.15;10.23;;;;;;;19.60;66.16;100964.78;6218831;23;20326;-83
2021/09/03 08:15:17;;;;;;;14.55;9.35;;;;;;;19.59;66.60;100963.06;6219810;23;20016;-82
2021/09/03 08:17:44;;;;;;;12.38;9.38;;;;;;;19.67;65.87;100965.19;6224955;23;20047;-83
2021/09/03 08:20:14;;;;;;;16.75;9.02;;;;;;;19.72;65.64;100963.84;6226053;23;20081;-82
2021/09/03 08:22:41;;;;;;;12.68;9.02;;;;;;;19.77;65.26;100963.50;6226824;23;20056;-82
2021/09/03 08:25:09;;;;;;;13.52;9.27;;;;;;;19.73;66.09;100967.38;6228866;23;20099;-83
2021/09/03 08:27:35;;;;;;;14.57;8.85;;;;;;;19.79;65.63;100954.34;6225661;23;20104;-85
2021/09/03 08:30:03;;;;;;;11.18;8.70;;;;;;;19.93;65.44;100969.41;6220813;23;20047;-81
2021/09/03 08:32:34;;;;;;;11.20;8.80;;;;;;;20.01;63.86;100958.91;6222489;23;20040;-84
2021/09/03 08:35:01;;;;;;;12.65;8.70;;;;;;;20.11;64.20;100967.16;6223433;23;20032;-86
2021/09/03 08:37:28;;;;;;;14.55;8.93;;;;;;;20.19;63.83;100967.38;6223119;23;20021;-85
2021/09/03 08:39:56;;;;;;;12.18;8.13;;;;;;;20.28;64.51;100966.69;6197092;23;20099;-83
2021/09/03 08:42:22;;;;;;;9.60;7.47;;;;;;;20.32;64.15;100946.63;6229371;23;20048;-84
2021/09/03 08:44:50;;;;;;;10.50;7.75;;;;;;;20.41;63.72;100954.00;6239685;23;20071;-84
2021/09/03 08:47:20;;;;;;;9.77;7.55;;;;;;;20.55;64.22;100950.22;6242943;23;20016;-83
2021/09/03 08:49:48;;;;;;;9.65;7.97;;;;;;;20.66;63.10;100960.97;6242942;23;20438;-83
2021/09/03 08:52:14;;;;;;;11.23;7.72;;;;;;;20.71;61.53;100958.78;6240024;23;20021;-83
2021/09/03 08:54:41;;;;;;;10.13;7.53;;;;;;;20.67;58.65;100958.16;6240068;23;20024;-85
2021/09/03 08:57:14;;;;;;;11.65;7.88;;;;;;;20.65;58.36;100951.19;6235581;23;20060;-86
2021/09/03 08:59:42;;;;;;;8.77;6.97;;;;;;;20.64;59.60;100944.94;6225944;23;20036;-85
2021/09/03 09:02:14;;;;;;;9.80;7.25;;;;;;;20.69;59.05;100949.13;6234203;23;20043;-85
2021/09/03 09:04:51;;;;;;;12.38;7.72;;;;;;;20.67;59.69;100952.78;6235581;23;20012;-84
2021/09/03 09:07:19;;;;;;;10.63;7.65;;;;;;;20.66;59.73;100963.66;6221905;23;20068;-85
2021/09/03 09:09:49;;;;;;;11.48;7.20;;;;;;;20.70;59.31;100958.91;6219806;23;20547;-84
2021/09/03 09:12:19;;;;;;;11.38;7.82;;;;;;;20.66;59.50;100955.59;6220144;23;20241;-84
2021/09/03 09:15:04;;;;;;;;;;;;;;;20.69;59.64;100954.50;6224318;23;20029;-84
2021/09/03 09:17:43;;;;;;;10.15;6.82;;;;;;;20.75;60.17;100946.81;6220002;23;19927;-83
2021/09/03 09:20:13;;;;;;;9.43;7.07;;;;;;;20.90;58.74;100952.78;6195108;23;20124;-84
2021/09/03 09:23:07;;;;;;;11.40;7.60;;;;;;;21.01;58.63;100950.06;6193646;23;20035;-84
2021/09/03 09:25:36;;;;;;;9.80;7.25;;;;;;;21.06;58.03;100944.31;6220889;23;20028;-86
2021/09/03 09:28:18;;;;;;;13.77;7.40;;;;;;;21.09;57.70;100944.91;6200102;23;20020;-86
2021/09/03 09:30:46;;;;;;;11.63;7.65;;;;;;;21.13;57.22;100948.19;6222606;23;20016;-83
2021/09/03 09:33:18;;;;;;;10.77;7.72;;;;;;;21.12;56.60;100943.78;6199713;23;20076;-84
2021/09/03 09:35:51;;;;;;;11.73;7.53;;;;;;;21.17;56.57;100936.19;6228924;23;20051;-84
2021/09/03 09:38:20;;;;;;;9.90;7.60;;;;;;;21.16;57.62;100927.25;6233561;23;20080;-84
2021/09/03 09:40:56;;;;;;;10.93;7.88;;;;;;;21.20;55.62;100938.66;6232649;23;20044;-84
2021/09/03 09:43:42;;;;;;;13.43;7.90;;;;;;;21.18;55.72;100927.97;6229387;23;20025;-83
2021/09/03 09:46:26;;;;;;;18.30;8.25;;;;;;;21.12;56.37;100922.22;6230958;23;20076;-82
2021/09/03 09:49:01;;;;;;;9.05;7.13;;;;;;;21.19;57.01;100921.66;6242870;23;20076;-85
2021/09/03 09:51:37;;;;;;;14.50;7.57;;;;;;;21.30;56.06;100918.91;6217916;23;20025;-82
2021/09/03 09:54:14;;;;;;;13.15;7.68;;;;;;;21.39;55.35;100911.06;6243317;23;20020;-83
2021/09/03 09:56:51;;;;;;;10.15;6.95;;;;;;;21.47;55.90;100913.94;6240515;23;20032;-81
2021/09/03 09:59:23;;;;;;;10.07;7.00;;;;;;;21.57;56.21;100913.03;6242626;23;20039;-82
2021/09/03 10:01:53;;;;;;;14.52;7.55;;;;;;;21.64;54.94;100907.97;6231032;23;20063;-83
2021/09/03 10:04:31;;;;;;;11.10;6.70;;;;;;;21.55;55.24;100906.94;6223230;23;20455;-83
2021/09/03 10:07:00;;;;;;;9.07;6.65;;;;;;;21.63;55.46;100903.56;6223335;23;20079;-82
2021/09/03 10:09:31;;;;;;;9.65;7.05;;;;;;;21.73;55.09;100907.19;6225271;23;20024;-82
2021/09/03 10:12:00;;;;;;;12.60;7.60;;;;;;;21.77;54.93;100895.16;6224533;23;20123;-84
2021/09/03 10:14:30;;;;;;;8.45;6.45;;;;;;;21.85;54.77;100898.06;6224772;23;20020;-84
2021/09/03 10:16:58;;;;;;;9.95;6.88;;;;;;;21.97;54.34;100905.09;6223254;23;20020;-83
2021/09/03 10:19:30;;;;;;;9.02;7.10;;;;;;;22.07;53.99;100898.91;6223893;23;20051;-82
2021/09/03 10:22:09;;;;;;;7.75;5.60;;;;;;;22.13;52.57;100904.66;6234045;23;20052;-81
2021/09/03 10:24:38;;;;;;;9.13;6.70;;;;;;;22.23;52.74;100896.59;6240671;23;20031;-85
2021/09/03 10:27:06;;;;;;;13.30;7.57;;;;;;;22.30;53.07;100885.13;6241058;23;20024;-83
2021/09/03 10:29:37;;;;;;;8.77;6.50;;;;;;;22.35;52.43;100888.25;6241835;23;20556;-84
2021/09/03 10:32:05;;;;;;;7.70;6.15;;;;;;;22.43;52.29;100879.50;6234485;23;20020;-82
2021/09/03 10:34:41;;;;;;;8.98;5.55;;;;;;;22.54;51.20;100886.63;6226820;23;20020;-81
2021/09/03 10:37:17;;;;;;;8.20;6.30;;;;;;;22.58;51.21;100880.84;6227389;23;20034;-82
2021/09/03 10:39:52;;;;;;;9.98;5.97;;;;;;;22.65;50.24;100876.59;6230250;23;20027;-83
2021/09/03 10:42:34;;;;;;;7.47;5.82;;;;;;;22.66;50.85;100872.06;6229696;23;20032;-82
2021/09/03 10:45:39;;;;;;;7.07;5.35;;;;;;;22.83;50.97;100873.25;6234887;23;20027;-83
2021/09/03 10:48:16;;;;;;;7.57;5.35;;;;;;;22.97;50.75;100870.16;6234565;23;20029;-83
2021/09/03 10:50:55;;;;;;;9.05;5.95;;;;;;;23.09;49.16;100867.19;6231593;23;20444;-82
2021/09/03 10:53:24;;;;;;;8.07;5.32;;;;;;;23.10;48.50;100865.34;6209544;23;20091;-81
2021/09/03 10:56:22;;;;;;;6.85;5.25;;;;;;;23.15;48.63;100863.06;6231663;23;20032;-81
2021/09/03 10:58:57;;;;;;;8.68;5.47;;;;;;;23.20;48.04;100858.09;6227401;23;20072;-81
2021/09/03 11:01:27;;;;;;;7.30;5.40;;;;;;;23.27;48.92;100845.72;6238003;23;20043;-83
2021/09/03 11:04:05;;;;;;;8.50;6.13;;;;;;;23.31;47.60;100851.69;6208761;23;20021;-80
2021/09/03 11:06:57;;;;;;;7.63;5.78;;;;;;;23.35;47.02;100853.97;6222133;23;20020;-82
2021/09/03 11:09:27;;;;;;;6.38;4.75;;;;;;;23.40;46.32;100846.28;6222927;23;20406;-82
2021/09/03 11:12:09;;;;;;;6.63;4.88;;;;;;;23.47;45.51;100841.13;6220931;23;20025;-81
2021/09/03 11:14:37;;;;;;;6.70;4.47;;;;;;;23.40;44.73;100832.78;6220557;23;20016;-82
2021/09/03 11:17:06;;;;;;;10.10;5.15;;;;;;;23.47;44.90;100830.31;6220923;23;20020;-80
2021/09/03 11:19:39;;;;;;;8.43;4.85;;;;;;;23.56;43.17;100832.22;6195276;23;20615;-80
2021/09/03 11:22:12;;;;;;;8.95;4.88;;;;;;;23.57;44.29;100822.25;6219164;23;20016;-81